KFFL/FFL METAR and TAF weather

Enter ICAO airport designator
Station Type Date Time Source
KFFL METAR 2019/02/20 18:15 UTC NOAA

KFFL 201815Z AUTO 22011G16KT 9SM OVC006 01/00 A2969 RMK AO2 PWINO


Station Type Date Time Source
KFFL Decoded METAR 2019/02/20 18:15 UTC NOAA

Fair Field, IA, United States (KFFL) 41-03N 091-59W
Feb 20, 2019 - 01:15 PM EST / 2019.02.20 1815 UTC
Wind: from the SW (220 degrees) at 13 MPH (11 KT) gusting to 18 MPH (16 KT):0
Visibility: 9 mile(s):0
Sky conditions: overcast
Temperature: 33 F (1 C)
Windchill: 23 F (-5 C):1
Dew Point: 32 F (0 C)
Relative Humidity: 93%
Pressure (altimeter): 29.69 in. Hg (1005 hPa)
ob: KFFL 201815Z AUTO 22011G16KT 9SM OVC006 01/00 A2969 RMK AO2 PWINO
cycle: 18

Station Type Date Time Source
KFFL TAF UTC NOAA

Error!


Example: see airport list